Aeroporto :







RITROVATECI SU...

 
LOGIN :

Iscrizione | Disclaimer

   EN    FR    IT 

 









Sommario :    VFR   VFR Marginale   IFR   IFR Intensivo   IFR Molto Intensivo
Visibilità : 
Base nubi : 
>= 8 km
>= 3000ft
5 / 8 km
1000 / 3000 ft
1500m / 5 km
500 / 1000 ft
800 / 1500m
200 / 500 ft
< 800m
< 200 ft
Simboli :   Temporali  Nebbia  Neve Forte  Precipitazioni Forti  Vento > 20 kt






- Altitudine del aeroporto : 108 ft
- Codice IATA : YAY


CYAY - St Anthony

ULTIMO METAR :
  • 062034Z AUTO 24008KT 6SM -SN SCT022 OVC039 M02/M02 A2942 RMK SLP965

METARs OBSOLETI :
  • 062010Z AUTO 24009KT 3SM -SN SCT010 SCT015 OVC022 M01/M02 A2941 RMK SLP963
  • 062002Z AUTO 24008KT 2SM -SN SCT010 BKN015 BKN019 OVC024 M01/M02 A2941 RMK SLP962
  • 061942Z AUTO 24010KT 3SM -SN SCT008 BKN013 BKN020 OVC030 M01/M02 A2940 RMK SLP959
  • 061935Z AUTO 24010KT 2 1/4SM -SN BKN008 OVC020 M01/M02 A2940 RMK VIS VRB 1 1/2-3 SLP958
  • 061918Z AUTO 23009KT 5SM -SN BKN008 OVC013 M01/M02 A2939 RMK SLP957
  • 061900Z AUTO 24008KT 9SM BKN010 BKN029 OVC110 M01/M02 A2939 RMK SLP955
  • 061857Z AUTO 24008KT 9SM BKN010 BKN029 OVC110 M01/M02 A2939 RMK SLP954
  • 061827Z AUTO 25012KT 9SM SCT012 OVC029 M01/M02 A2937 RMK SLP950
  • 061818Z AUTO 25011G16KT 9SM BKN012 BKN027 OVC041 M01/M02 A2937 RMK SLP950
  • 061800Z AUTO 26011G17KT 9SM -SN FEW010 BKN045 BKN055 OVC068 M01/M02 A2937 RMK PCPN 0.5MM PAST HR SLP947

TAF TAF CYAY
Valido dal 06 a 20 ore il 07 a 08 ore UTC


061938Z 0620/0708 24012KT P6SM -SN SCT012 OVC030
TEMPO 0620/0708 2SM -SHSN OVC012 RMK FCST BASED ON AUTO OBS. NXT FCST BY 070200Z



MetMap, La meteo Aeronautica in un colpo d'occhio ! - Copyright ORBIFLY Dicembre 2007 - Disclaimer

ORBIFLY MET'MAP TEAM :

Programmazione e sviluppo : Alexandra Zaïnal
Concezione : Baudouin d'Aumeries
Aiuto per la programmazione : Marc-Olivier Méhu
Supporto tecnico e logistico : Manuel Goepfert
Aiuto per la traduzione : Arnaldo La Scala

Contatto : metmap@orbifly.com




FONTI E CREDITI :

   NOAA